sensor_id;sensor_type;location;lat;lon;timestamp;temperature;humidity
29917;DHT22;16786;49.466;11.068;2022-07-11T00:00:09;15.20;99.90
29917;DHT22;16786;49.466;11.068;2022-07-11T00:02:38;15.30;99.90
29917;DHT22;16786;49.466;11.068;2022-07-11T00:05:09;15.30;99.90
29917;DHT22;16786;49.466;11.068;2022-07-11T00:07:37;15.30;99.90
29917;DHT22;16786;49.466;11.068;2022-07-11T00:10:05;15.30;99.90
29917;DHT22;16786;49.466;11.068;2022-07-11T00:12:33;15.30;99.90
29917;DHT22;16786;49.466;11.068;2022-07-11T00:15:00;15.30;99.90
29917;DHT22;16786;49.466;11.068;2022-07-11T00:17:29;15.20;99.90
29917;DHT22;16786;49.466;11.068;2022-07-11T00:19:57;15.20;99.90
29917;DHT22;16786;49.466;11.068;2022-07-11T00:22:25;15.20;99.90
29917;DHT22;16786;49.466;11.068;2022-07-11T00:24:53;15.10;99.90
29917;DHT22;16786;49.466;11.068;2022-07-11T00:27:20;15.10;99.90
29917;DHT22;16786;49.466;11.068;2022-07-11T00:29:47;15.10;99.90
29917;DHT22;16786;49.466;11.068;2022-07-11T00:32:15;15.00;99.90
29917;DHT22;16786;49.466;11.068;2022-07-11T00:34:42;15.10;99.90
29917;DHT22;16786;49.466;11.068;2022-07-11T00:37:09;15.10;99.90
29917;DHT22;16786;49.466;11.068;2022-07-11T00:39:40;15.00;99.90
29917;DHT22;16786;49.466;11.068;2022-07-11T00:42:09;15.00;99.90
29917;DHT22;16786;49.466;11.068;2022-07-11T00:44:37;15.00;99.90
29917;DHT22;16786;49.466;11.068;2022-07-11T00:47:04;15.00;99.90
29917;DHT22;16786;49.466;11.068;2022-07-11T00:49:32;15.00;99.90
29917;DHT22;16786;49.466;11.068;2022-07-11T00:51:59;15.10;99.90
29917;DHT22;16786;49.466;11.068;2022-07-11T00:54:27;15.10;99.90
29917;DHT22;16786;49.466;11.068;2022-07-11T00:56:55;15.10;99.90
29917;DHT22;16786;49.466;11.068;2022-07-11T00:59:23;15.10;99.90
29917;DHT22;16786;49.466;11.068;2022-07-11T01:01:50;15.20;99.90
29917;DHT22;16786;49.466;11.068;2022-07-11T01:04:18;15.20;99.90
29917;DHT22;16786;49.466;11.068;2022-07-11T01:06:46;15.20;99.90
29917;DHT22;16786;49.466;11.068;2022-07-11T01:09:14;15.30;99.90
29917;DHT22;16786;49.466;11.068;2022-07-11T01:11:41;15.30;99.90
29917;DHT22;16786;49.466;11.068;2022-07-11T01:14:09;15.20;99.90
29917;DHT22;16786;49.466;11.068;2022-07-11T01:16:36;15.30;99.90
29917;DHT22;16786;49.466;11.068;2022-07-11T01:19:04;15.30;99.90
29917;DHT22;16786;49.466;11.068;2022-07-11T01:21:36;15.30;99.90
29917;DHT22;16786;49.466;11.068;2022-07-11T01:24:07;15.30;99.90
29917;DHT22;16786;49.466;11.068;2022-07-11T01:26:35;15.30;99.90
29917;DHT22;16786;49.466;11.068;2022-07-11T01:29:11;15.30;99.90
29917;DHT22;16786;49.466;11.068;2022-07-11T01:31:41;15.30;99.90
29917;DHT22;16786;49.466;11.068;2022-07-11T01:34:10;15.40;99.90
29917;DHT22;16786;49.466;11.068;2022-07-11T01:36:37;15.40;99.90
29917;DHT22;16786;49.466;11.068;2022-07-11T01:39:05;15.50;99.90
29917;DHT22;16786;49.466;11.068;2022-07-11T01:41:32;15.40;99.90
29917;DHT22;16786;49.466;11.068;2022-07-11T01:44:00;15.50;99.90
29917;DHT22;16786;49.466;11.068;2022-07-11T01:46:27;15.40;99.90
29917;DHT22;16786;49.466;11.068;2022-07-11T01:48:55;15.40;99.90
29917;DHT22;16786;49.466;11.068;2022-07-11T01:51:23;15.40;99.90
29917;DHT22;16786;49.466;11.068;2022-07-11T01:53:51;15.40;99.90
29917;DHT22;16786;49.466;11.068;2022-07-11T01:56:22;15.30;99.90
29917;DHT22;16786;49.466;11.068;2022-07-11T01:58:59;15.20;99.90
29917;DHT22;16786;49.466;11.068;2022-07-11T02:01:26;15.20;99.90
29917;DHT22;16786;49.466;11.068;2022-07-11T02:03:54;15.20;99.90
29917;DHT22;16786;49.466;11.068;2022-07-11T02:06:22;15.20;99.90
29917;DHT22;16786;49.466;11.068;2022-07-11T02:08:49;15.20;99.90
29917;DHT22;16786;49.466;11.068;2022-07-11T02:11:17;15.20;99.90
29917;DHT22;16786;49.466;11.068;2022-07-11T02:13:44;15.20;99.90
29917;DHT22;16786;49.466;11.068;2022-07-11T02:16:12;15.20;99.90
29917;DHT22;16786;49.466;11.068;2022-07-11T02:18:39;15.30;99.90
29917;DHT22;16786;49.466;11.068;2022-07-11T02:21:06;15.30;99.90
29917;DHT22;16786;49.466;11.068;2022-07-11T02:23:35;15.30;99.90
29917;DHT22;16786;49.466;11.068;2022-07-11T02:26:02;15.30;99.90
29917;DHT22;16786;49.466;11.068;2022-07-11T02:28:29;15.30;99.90
29917;DHT22;16786;49.466;11.068;2022-07-11T02:30:56;15.30;99.90
29917;DHT22;16786;49.466;11.068;2022-07-11T02:33:24;15.30;99.90
29917;DHT22;16786;49.466;11.068;2022-07-11T02:35:51;15.30;99.90
29917;DHT22;16786;49.466;11.068;2022-07-11T02:38:18;15.30;99.90
29917;DHT22;16786;49.466;11.068;2022-07-11T02:40:46;15.30;99.90
29917;DHT22;16786;49.466;11.068;2022-07-11T02:43:14;15.20;99.90
29917;DHT22;16786;49.466;11.068;2022-07-11T02:45:43;15.20;99.90
29917;DHT22;16786;49.466;11.068;2022-07-11T02:48:10;15.30;99.90
29917;DHT22;16786;49.466;11.068;2022-07-11T02:50:38;15.30;99.90
29917;DHT22;16786;49.466;11.068;2022-07-11T02:53:05;15.20;99.90
29917;DHT22;16786;49.466;11.068;2022-07-11T02:55:32;15.20;99.90
29917;DHT22;16786;49.466;11.068;2022-07-11T02:57:59;15.20;99.90
29917;DHT22;16786;49.466;11.068;2022-07-11T03:00:27;15.20;99.90
29917;DHT22;16786;49.466;11.068;2022-07-11T03:02:54;15.20;99.90
29917;DHT22;16786;49.466;11.068;2022-07-11T03:05:22;15.20;99.90
29917;DHT22;16786;49.466;11.068;2022-07-11T03:07:49;15.20;99.90
29917;DHT22;16786;49.466;11.068;2022-07-11T03:10:17;15.20;99.90
29917;DHT22;16786;49.466;11.068;2022-07-11T03:12:44;15.20;99.90
29917;DHT22;16786;49.466;11.068;2022-07-11T03:15:12;15.20;99.90
29917;DHT22;16786;49.466;11.068;2022-07-11T03:17:39;15.20;99.90
29917;DHT22;16786;49.466;11.068;2022-07-11T03:20:08;15.30;99.90
29917;DHT22;16786;49.466;11.068;2022-07-11T03:22:35;15.20;99.90
29917;DHT22;16786;49.466;11.068;2022-07-11T03:25:03;15.30;99.90
29917;DHT22;16786;49.466;11.068;2022-07-11T03:27:33;15.30;99.90
29917;DHT22;16786;49.466;11.068;2022-07-11T03:30:01;15.30;99.90
29917;DHT22;16786;49.466;11.068;2022-07-11T03:32:28;15.40;99.90
29917;DHT22;16786;49.466;11.068;2022-07-11T03:34:56;15.30;99.90
29917;DHT22;16786;49.466;11.068;2022-07-11T03:37:42;15.20;99.90
29917;DHT22;16786;49.466;11.068;2022-07-11T03:40:10;15.30;99.90
29917;DHT22;16786;49.466;11.068;2022-07-11T03:42:37;15.10;99.90
29917;DHT22;16786;49.466;11.068;2022-07-11T03:45:05;15.00;99.90
29917;DHT22;16786;49.466;11.068;2022-07-11T03:47:32;15.00;99.90
29917;DHT22;16786;49.466;11.068;2022-07-11T03:50:00;15.00;99.90
29917;DHT22;16786;49.466;11.068;2022-07-11T03:52:28;15.00;99.90
29917;DHT22;16786;49.466;11.068;2022-07-11T03:54:55;15.10;99.90
29917;DHT22;16786;49.466;11.068;2022-07-11T03:57:22;15.00;99.90
29917;DHT22;16786;49.466;11.068;2022-07-11T03:59:50;15.00;99.90
29917;DHT22;16786;49.466;11.068;2022-07-11T04:02:17;15.00;99.90
29917;DHT22;16786;49.466;11.068;2022-07-11T04:04:44;15.10;99.90
29917;DHT22;16786;49.466;11.068;2022-07-11T04:07:11;15.00;99.90
29917;DHT22;16786;49.466;11.068;2022-07-11T04:09:39;15.10;99.90
29917;DHT22;16786;49.466;11.068;2022-07-11T04:12:06;15.10;99.90
29917;DHT22;16786;49.466;11.068;2022-07-11T04:14:34;15.20;99.90
29917;DHT22;16786;49.466;11.068;2022-07-11T04:17:01;15.20;99.90
29917;DHT22;16786;49.466;11.068;2022-07-11T04:19:29;15.20;99.90
29917;DHT22;16786;49.466;11.068;2022-07-11T04:21:56;15.30;99.90
29917;DHT22;16786;49.466;11.068;2022-07-11T04:24:25;15.30;99.90
29917;DHT22;16786;49.466;11.068;2022-07-11T04:26:52;15.40;99.90
29917;DHT22;16786;49.466;11.068;2022-07-11T04:29:20;15.40;99.90
29917;DHT22;16786;49.466;11.068;2022-07-11T04:31:47;15.50;99.90
29917;DHT22;16786;49.466;11.068;2022-07-11T04:34:14;15.60;99.90
29917;DHT22;16786;49.466;11.068;2022-07-11T04:36:42;15.60;99.90
29917;DHT22;16786;49.466;11.068;2022-07-11T04:39:09;15.60;99.90
29917;DHT22;16786;49.466;11.068;2022-07-11T04:41:36;15.80;99.90
29917;DHT22;16786;49.466;11.068;2022-07-11T04:44:04;15.90;99.90
29917;DHT22;16786;49.466;11.068;2022-07-11T04:46:31;15.90;99.90
29917;DHT22;16786;49.466;11.068;2022-07-11T04:48:59;16.00;99.90
29917;DHT22;16786;49.466;11.068;2022-07-11T04:51:26;16.10;99.90
29917;DHT22;16786;49.466;11.068;2022-07-11T04:53:53;16.20;99.90
29917;DHT22;16786;49.466;11.068;2022-07-11T04:56:21;16.20;99.90
29917;DHT22;16786;49.466;11.068;2022-07-11T04:58:48;16.30;99.90
29917;DHT22;16786;49.466;11.068;2022-07-11T05:01:15;16.30;99.90
29917;DHT22;16786;49.466;11.068;2022-07-11T05:03:43;16.50;99.90
29917;DHT22;16786;49.466;11.068;2022-07-11T05:06:12;16.60;99.90
29917;DHT22;16786;49.466;11.068;2022-07-11T05:08:40;16.60;99.90
29917;DHT22;16786;49.466;11.068;2022-07-11T05:11:07;16.70;99.90
29917;DHT22;16786;49.466;11.068;2022-07-11T05:13:34;16.50;99.90
29917;DHT22;16786;49.466;11.068;2022-07-11T05:16:03;16.40;99.90
29917;DHT22;16786;49.466;11.068;2022-07-11T05:18:30;16.50;99.90
29917;DHT22;16786;49.466;11.068;2022-07-11T05:20:58;16.60;99.90
29917;DHT22;16786;49.466;11.068;2022-07-11T05:23:25;16.80;99.90
29917;DHT22;16786;49.466;11.068;2022-07-11T05:25:52;16.60;99.90
29917;DHT22;16786;49.466;11.068;2022-07-11T05:28:20;16.60;99.90
29917;DHT22;16786;49.466;11.068;2022-07-11T05:30:47;16.60;99.90
29917;DHT22;16786;49.466;11.068;2022-07-11T05:33:14;16.70;99.90
29917;DHT22;16786;49.466;11.068;2022-07-11T05:35:42;16.70;99.90
29917;DHT22;16786;49.466;11.068;2022-07-11T05:38:09;16.60;99.90
29917;DHT22;16786;49.466;11.068;2022-07-11T05:40:36;16.60;99.90
29917;DHT22;16786;49.466;11.068;2022-07-11T05:43:04;16.50;99.90
29917;DHT22;16786;49.466;11.068;2022-07-11T05:45:31;16.40;99.90
29917;DHT22;16786;49.466;11.068;2022-07-11T05:47:58;16.40;99.90
29917;DHT22;16786;49.466;11.068;2022-07-11T05:50:25;16.30;99.90
29917;DHT22;16786;49.466;11.068;2022-07-11T05:52:53;16.20;99.90
29917;DHT22;16786;49.466;11.068;2022-07-11T05:55:24;16.30;99.90
29917;DHT22;16786;49.466;11.068;2022-07-11T05:57:51;16.10;99.90
29917;DHT22;16786;49.466;11.068;2022-07-11T06:00:18;16.10;99.90
29917;DHT22;16786;49.466;11.068;2022-07-11T06:02:46;16.00;99.90
29917;DHT22;16786;49.466;11.068;2022-07-11T06:05:14;15.90;99.90
29917;DHT22;16786;49.466;11.068;2022-07-11T06:07:42;15.80;99.90
29917;DHT22;16786;49.466;11.068;2022-07-11T06:10:27;16.00;99.90
29917;DHT22;16786;49.466;11.068;2022-07-11T06:12:55;16.00;99.90
29917;DHT22;16786;49.466;11.068;2022-07-11T06:15:22;16.00;99.90
29917;DHT22;16786;49.466;11.068;2022-07-11T06:17:50;16.20;99.90
29917;DHT22;16786;49.466;11.068;2022-07-11T06:20:18;16.40;99.90
29917;DHT22;16786;49.466;11.068;2022-07-11T06:22:45;16.40;99.90
29917;DHT22;16786;49.466;11.068;2022-07-11T06:25:13;16.60;99.90
29917;DHT22;16786;49.466;11.068;2022-07-11T06:27:40;16.70;99.90
29917;DHT22;16786;49.466;11.068;2022-07-11T06:30:08;16.70;99.90
29917;DHT22;16786;49.466;11.068;2022-07-11T06:32:35;16.90;99.90
29917;DHT22;16786;49.466;11.068;2022-07-11T06:35:03;17.10;99.90
29917;DHT22;16786;49.466;11.068;2022-07-11T06:37:30;17.30;99.90
29917;DHT22;16786;49.466;11.068;2022-07-11T06:39:58;17.50;99.90
29917;DHT22;16786;49.466;11.068;2022-07-11T06:42:26;17.70;99.90
29917;DHT22;16786;49.466;11.068;2022-07-11T06:44:55;17.90;99.90
29917;DHT22;16786;49.466;11.068;2022-07-11T06:47:22;18.00;99.90
29917;DHT22;16786;49.466;11.068;2022-07-11T06:49:49;17.90;99.90
29917;DHT22;16786;49.466;11.068;2022-07-11T06:52:17;18.10;99.90
29917;DHT22;16786;49.466;11.068;2022-07-11T06:54:44;18.10;99.90
29917;DHT22;16786;49.466;11.068;2022-07-11T06:57:11;18.30;99.90
29917;DHT22;16786;49.466;11.068;2022-07-11T06:59:38;18.70;99.90
29917;DHT22;16786;49.466;11.068;2022-07-11T07:02:06;18.50;99.90
29917;DHT22;16786;49.466;11.068;2022-07-11T07:04:33;18.50;99.90
29917;DHT22;16786;49.466;11.068;2022-07-11T07:07:01;18.70;99.90
29917;DHT22;16786;49.466;11.068;2022-07-11T07:09:29;18.90;99.90
29917;DHT22;16786;49.466;11.068;2022-07-11T07:11:56;18.90;99.90
29917;DHT22;16786;49.466;11.068;2022-07-11T07:14:25;18.80;99.90
29917;DHT22;16786;49.466;11.068;2022-07-11T07:16:52;18.60;99.90
29917;DHT22;16786;49.466;11.068;2022-07-11T07:19:20;18.70;99.90
29917;DHT22;16786;49.466;11.068;2022-07-11T07:21:48;18.60;99.90
29917;DHT22;16786;49.466;11.068;2022-07-11T07:24:15;18.70;99.90
29917;DHT22;16786;49.466;11.068;2022-07-11T07:26:44;18.70;99.90
29917;DHT22;16786;49.466;11.068;2022-07-11T07:29:11;18.70;99.90
29917;DHT22;16786;49.466;11.068;2022-07-11T07:31:40;18.50;99.90
29917;DHT22;16786;49.466;11.068;2022-07-11T07:34:07;18.50;99.90
29917;DHT22;16786;49.466;11.068;2022-07-11T07:36:36;18.20;99.90
29917;DHT22;16786;49.466;11.068;2022-07-11T07:39:03;18.40;99.90
29917;DHT22;16786;49.466;11.068;2022-07-11T07:41:31;18.40;99.90
29917;DHT22;16786;49.466;11.068;2022-07-11T07:43:58;18.70;99.90
29917;DHT22;16786;49.466;11.068;2022-07-11T07:46:25;18.90;99.90
29917;DHT22;16786;49.466;11.068;2022-07-11T07:48:53;18.80;99.90
29917;DHT22;16786;49.466;11.068;2022-07-11T07:51:21;18.90;99.90
29917;DHT22;16786;49.466;11.068;2022-07-11T07:53:49;18.80;99.90
29917;DHT22;16786;49.466;11.068;2022-07-11T07:56:22;18.90;99.90
29917;DHT22;16786;49.466;11.068;2022-07-11T07:58:50;18.80;99.90
29917;DHT22;16786;49.466;11.068;2022-07-11T08:01:18;18.90;99.90
29917;DHT22;16786;49.466;11.068;2022-07-11T08:04:07;18.80;99.90
29917;DHT22;16786;49.466;11.068;2022-07-11T08:06:36;18.80;99.90
29917;DHT22;16786;49.466;11.068;2022-07-11T08:09:05;19.00;99.90
29917;DHT22;16786;49.466;11.068;2022-07-11T08:11:33;19.30;99.90
29917;DHT22;16786;49.466;11.068;2022-07-11T08:14:02;19.50;99.90
29917;DHT22;16786;49.466;11.068;2022-07-11T08:16:31;19.70;99.90
29917;DHT22;16786;49.466;11.068;2022-07-11T08:19:00;19.60;99.90
29917;DHT22;16786;49.466;11.068;2022-07-11T08:21:28;19.50;99.90
29917;DHT22;16786;49.466;11.068;2022-07-11T08:23:56;19.50;99.90
29917;DHT22;16786;49.466;11.068;2022-07-11T08:26:23;19.30;99.90
29917;DHT22;16786;49.466;11.068;2022-07-11T08:29:00;18.90;99.90
29917;DHT22;16786;49.466;11.068;2022-07-11T08:31:27;19.10;99.90
29917;DHT22;16786;49.466;11.068;2022-07-11T08:33:55;19.10;99.90
29917;DHT22;16786;49.466;11.068;2022-07-11T08:36:24;19.00;99.90
29917;DHT22;16786;49.466;11.068;2022-07-11T08:38:51;19.00;99.90
29917;DHT22;16786;49.466;11.068;2022-07-11T08:41:19;19.00;99.90
29917;DHT22;16786;49.466;11.068;2022-07-11T08:43:48;18.80;99.90
29917;DHT22;16786;49.466;11.068;2022-07-11T08:46:17;18.80;99.90
29917;DHT22;16786;49.466;11.068;2022-07-11T08:48:44;18.80;99.90
29917;DHT22;16786;49.466;11.068;2022-07-11T08:51:13;18.70;99.90
29917;DHT22;16786;49.466;11.068;2022-07-11T08:53:42;18.80;99.90
29917;DHT22;16786;49.466;11.068;2022-07-11T08:56:13;18.80;99.90
29917;DHT22;16786;49.466;11.068;2022-07-11T08:58:48;18.80;99.90
29917;DHT22;16786;49.466;11.068;2022-07-11T09:01:30;18.80;99.90
29917;DHT22;16786;49.466;11.068;2022-07-11T09:03:59;18.60;99.90
29917;DHT22;16786;49.466;11.068;2022-07-11T09:06:27;18.60;99.90
29917;DHT22;16786;49.466;11.068;2022-07-11T09:09:01;18.60;99.90
29917;DHT22;16786;49.466;11.068;2022-07-11T09:11:33;18.50;99.90
29917;DHT22;16786;49.466;11.068;2022-07-11T09:14:30;18.40;99.90
29917;DHT22;16786;49.466;11.068;2022-07-11T09:16:59;18.00;99.90
29917;DHT22;16786;49.466;11.068;2022-07-11T09:19:34;17.80;99.90
29917;DHT22;16786;49.466;11.068;2022-07-11T09:22:05;17.60;99.90
29917;DHT22;16786;49.466;11.068;2022-07-11T09:25:11;17.60;99.90
29917;DHT22;16786;49.466;11.068;2022-07-11T09:28:08;17.50;99.90
29917;DHT22;16786;49.466;11.068;2022-07-11T09:30:37;17.50;99.90
29917;DHT22;16786;49.466;11.068;2022-07-11T09:33:11;17.50;99.90
29917;DHT22;16786;49.466;11.068;2022-07-11T09:35:40;17.80;99.90
29917;DHT22;16786;49.466;11.068;2022-07-11T09:38:10;18.20;99.90
29917;DHT22;16786;49.466;11.068;2022-07-11T09:40:42;18.60;99.90
29917;DHT22;16786;49.466;11.068;2022-07-11T09:43:09;19.20;99.90
29917;DHT22;16786;49.466;11.068;2022-07-11T09:45:37;19.80;99.90
29917;DHT22;16786;49.466;11.068;2022-07-11T09:48:10;20.40;99.90
29917;DHT22;16786;49.466;11.068;2022-07-11T09:50:38;21.10;99.90
29917;DHT22;16786;49.466;11.068;2022-07-11T09:53:11;21.40;99.90
29917;DHT22;16786;49.466;11.068;2022-07-11T09:55:43;21.70;99.90
29917;DHT22;16786;49.466;11.068;2022-07-11T09:58:19;22.00;99.90
29917;DHT22;16786;49.466;11.068;2022-07-11T10:00:49;22.20;99.90
29917;DHT22;16786;49.466;11.068;2022-07-11T10:03:21;22.50;99.90
29917;DHT22;16786;49.466;11.068;2022-07-11T10:06:09;22.60;99.90
29917;DHT22;16786;49.466;11.068;2022-07-11T10:08:36;22.40;99.90
29917;DHT22;16786;49.466;11.068;2022-07-11T10:11:04;21.90;99.90
29917;DHT22;16786;49.466;11.068;2022-07-11T10:13:32;21.50;99.90
29917;DHT22;16786;49.466;11.068;2022-07-11T10:16:00;21.20;99.90
29917;DHT22;16786;49.466;11.068;2022-07-11T10:18:42;20.90;99.90
29917;DHT22;16786;49.466;11.068;2022-07-11T10:21:15;20.60;99.90
29917;DHT22;16786;49.466;11.068;2022-07-11T10:24:06;20.40;99.90
29917;DHT22;16786;49.466;11.068;2022-07-11T10:26:59;20.20;99.90
29917;DHT22;16786;49.466;11.068;2022-07-11T10:29:45;19.50;99.90
29917;DHT22;16786;49.466;11.068;2022-07-11T10:32:14;19.30;99.90
29917;DHT22;16786;49.466;11.068;2022-07-11T10:34:43;19.00;99.90
29917;DHT22;16786;49.466;11.068;2022-07-11T10:37:11;19.00;99.90
29917;DHT22;16786;49.466;11.068;2022-07-11T10:39:56;18.80;99.90
29917;DHT22;16786;49.466;11.068;2022-07-11T10:42:40;18.50;99.90
29917;DHT22;16786;49.466;11.068;2022-07-11T10:45:09;18.60;99.90
29917;DHT22;16786;49.466;11.068;2022-07-11T10:47:43;18.70;99.90
29917;DHT22;16786;49.466;11.068;2022-07-11T10:50:37;18.50;99.90
29917;DHT22;16786;49.466;11.068;2022-07-11T10:53:09;18.60;99.90
29917;DHT22;16786;49.466;11.068;2022-07-11T10:56:10;18.70;99.90
29917;DHT22;16786;49.466;11.068;2022-07-11T10:59:15;18.40;99.90
29917;DHT22;16786;49.466;11.068;2022-07-11T11:02:11;18.40;99.90
29917;DHT22;16786;49.466;11.068;2022-07-11T11:04:54;18.30;99.90
29917;DHT22;16786;49.466;11.068;2022-07-11T11:07:38;18.40;99.90
29917;DHT22;16786;49.466;11.068;2022-07-11T11:15:41;19.00;99.90
29917;DHT22;16786;49.466;11.068;2022-07-11T11:23:35;21.30;99.90
29917;DHT22;16786;49.466;11.068;2022-07-11T11:26:17;22.20;99.90
29917;DHT22;16786;49.466;11.068;2022-07-11T11:29:00;23.00;99.90
29917;DHT22;16786;49.466;11.068;2022-07-11T11:31:29;23.00;99.90
29917;DHT22;16786;49.466;11.068;2022-07-11T11:33:58;22.70;99.90
29917;DHT22;16786;49.466;11.068;2022-07-11T11:36:27;22.70;99.90
29917;DHT22;16786;49.466;11.068;2022-07-11T11:38:55;22.80;99.90
29917;DHT22;16786;49.466;11.068;2022-07-11T11:41:25;22.60;99.90
29917;DHT22;16786;49.466;11.068;2022-07-11T11:43:54;22.60;99.90
29917;DHT22;16786;49.466;11.068;2022-07-11T11:46:32;22.70;99.90
29917;DHT22;16786;49.466;11.068;2022-07-11T11:49:03;22.80;99.90
29917;DHT22;16786;49.466;11.068;2022-07-11T11:51:32;22.00;99.90
29917;DHT22;16786;49.466;11.068;2022-07-11T11:54:01;22.10;99.90
29917;DHT22;16786;49.466;11.068;2022-07-11T11:56:30;22.00;99.90
29917;DHT22;16786;49.466;11.068;2022-07-11T11:59:03;21.70;99.90
29917;DHT22;16786;49.466;11.068;2022-07-11T12:01:38;21.10;99.90
29917;DHT22;16786;49.466;11.068;2022-07-11T12:04:08;20.80;99.90
29917;DHT22;16786;49.466;11.068;2022-07-11T12:06:40;20.70;99.90
29917;DHT22;16786;49.466;11.068;2022-07-11T12:09:08;21.20;99.90
29917;DHT22;16786;49.466;11.068;2022-07-11T12:11:44;21.60;99.90
29917;DHT22;16786;49.466;11.068;2022-07-11T12:14:14;22.10;99.90
29917;DHT22;16786;49.466;11.068;2022-07-11T12:16:46;21.70;99.90
29917;DHT22;16786;49.466;11.068;2022-07-11T12:19:21;22.40;99.90
29917;DHT22;16786;49.466;11.068;2022-07-11T12:21:53;22.50;99.90
29917;DHT22;16786;49.466;11.068;2022-07-11T12:24:26;22.30;99.90
29917;DHT22;16786;49.466;11.068;2022-07-11T12:26:57;22.40;99.90
29917;DHT22;16786;49.466;11.068;2022-07-11T12:29:26;22.60;99.90
29917;DHT22;16786;49.466;11.068;2022-07-11T12:31:55;23.50;99.90
29917;DHT22;16786;49.466;11.068;2022-07-11T12:34:44;23.80;99.90
29917;DHT22;16786;49.466;11.068;2022-07-11T12:37:16;23.60;99.90
29917;DHT22;16786;49.466;11.068;2022-07-11T12:39:48;24.80;99.90
29917;DHT22;16786;49.466;11.068;2022-07-11T12:42:33;25.20;99.90
29917;DHT22;16786;49.466;11.068;2022-07-11T12:45:01;25.40;99.90
29917;DHT22;16786;49.466;11.068;2022-07-11T12:50:16;25.80;99.90
29917;DHT22;16786;49.466;11.068;2022-07-11T12:52:48;24.80;99.90
29917;DHT22;16786;49.466;11.068;2022-07-11T12:55:21;24.30;99.90
29917;DHT22;16786;49.466;11.068;2022-07-11T12:58:12;24.40;99.90
29917;DHT22;16786;49.466;11.068;2022-07-11T13:00:59;24.00;99.90
29917;DHT22;16786;49.466;11.068;2022-07-11T13:03:33;24.10;99.90
29917;DHT22;16786;49.466;11.068;2022-07-11T13:06:02;24.50;99.90
29917;DHT22;16786;49.466;11.068;2022-07-11T13:08:32;25.10;99.90
29917;DHT22;16786;49.466;11.068;2022-07-11T13:11:18;25.70;99.90
29917;DHT22;16786;49.466;11.068;2022-07-11T13:13:48;26.40;99.90
29917;DHT22;16786;49.466;11.068;2022-07-11T13:16:17;26.30;99.90
29917;DHT22;16786;49.466;11.068;2022-07-11T13:18:45;26.40;99.90
29917;DHT22;16786;49.466;11.068;2022-07-11T13:21:15;27.30;99.90
29917;DHT22;16786;49.466;11.068;2022-07-11T13:23:43;27.40;99.90
29917;DHT22;16786;49.466;11.068;2022-07-11T13:26:11;27.30;99.90
29917;DHT22;16786;49.466;11.068;2022-07-11T13:28:38;26.40;99.90
29917;DHT22;16786;49.466;11.068;2022-07-11T13:31:06;25.60;99.90
29917;DHT22;16786;49.466;11.068;2022-07-11T13:33:40;25.50;99.90
29917;DHT22;16786;49.466;11.068;2022-07-11T13:36:09;25.20;99.90
29917;DHT22;16786;49.466;11.068;2022-07-11T13:38:37;24.30;99.90
29917;DHT22;16786;49.466;11.068;2022-07-11T13:41:04;23.60;99.90
29917;DHT22;16786;49.466;11.068;2022-07-11T13:43:36;23.80;99.90
29917;DHT22;16786;49.466;11.068;2022-07-11T13:46:04;24.10;99.90
29917;DHT22;16786;49.466;11.068;2022-07-11T13:48:32;23.90;99.90
29917;DHT22;16786;49.466;11.068;2022-07-11T13:50:59;23.70;99.90
29917;DHT22;16786;49.466;11.068;2022-07-11T13:53:26;23.60;99.90
29917;DHT22;16786;49.466;11.068;2022-07-11T13:55:54;23.70;99.90
29917;DHT22;16786;49.466;11.068;2022-07-11T13:58:21;24.10;99.90
29917;DHT22;16786;49.466;11.068;2022-07-11T14:01:00;23.90;99.90
29917;DHT22;16786;49.466;11.068;2022-07-11T14:03:28;23.80;99.90
29917;DHT22;16786;49.466;11.068;2022-07-11T14:05:56;23.90;99.90
29917;DHT22;16786;49.466;11.068;2022-07-11T14:08:23;23.90;99.90
29917;DHT22;16786;49.466;11.068;2022-07-11T14:10:51;23.60;99.90
29917;DHT22;16786;49.466;11.068;2022-07-11T14:13:19;23.30;99.90
29917;DHT22;16786;49.466;11.068;2022-07-11T14:15:47;23.20;99.90
29917;DHT22;16786;49.466;11.068;2022-07-11T14:18:14;23.30;99.90
29917;DHT22;16786;49.466;11.068;2022-07-11T14:20:41;23.70;99.90
29917;DHT22;16786;49.466;11.068;2022-07-11T14:23:08;23.60;99.90
29917;DHT22;16786;49.466;11.068;2022-07-11T14:25:36;23.50;99.90
29917;DHT22;16786;49.466;11.068;2022-07-11T14:28:04;23.20;99.90
29917;DHT22;16786;49.466;11.068;2022-07-11T14:30:32;23.30;99.90
29917;DHT22;16786;49.466;11.068;2022-07-11T14:33:01;23.10;99.90
29917;DHT22;16786;49.466;11.068;2022-07-11T14:35:28;22.70;99.90
29917;DHT22;16786;49.466;11.068;2022-07-11T14:37:55;22.40;99.90
29917;DHT22;16786;49.466;11.068;2022-07-11T14:40:22;22.50;99.90
29917;DHT22;16786;49.466;11.068;2022-07-11T14:42:55;22.60;99.90
29917;DHT22;16786;49.466;11.068;2022-07-11T14:45:22;22.20;99.90
29917;DHT22;16786;49.466;11.068;2022-07-11T14:47:50;22.40;99.90
29917;DHT22;16786;49.466;11.068;2022-07-11T14:50:18;22.60;99.90
29917;DHT22;16786;49.466;11.068;2022-07-11T14:52:46;22.60;99.90
29917;DHT22;16786;49.466;11.068;2022-07-11T14:55:14;22.80;99.90
29917;DHT22;16786;49.466;11.068;2022-07-11T14:57:41;22.90;99.90
29917;DHT22;16786;49.466;11.068;2022-07-11T15:00:14;23.20;99.90
29917;DHT22;16786;49.466;11.068;2022-07-11T15:02:42;23.00;99.90
29917;DHT22;16786;49.466;11.068;2022-07-11T15:05:28;23.00;99.90
29917;DHT22;16786;49.466;11.068;2022-07-11T15:07:55;23.00;99.90
29917;DHT22;16786;49.466;11.068;2022-07-11T15:10:41;22.90;99.90
29917;DHT22;16786;49.466;11.068;2022-07-11T15:13:27;22.70;99.90
29917;DHT22;16786;49.466;11.068;2022-07-11T15:15:54;22.40;99.90
29917;DHT22;16786;49.466;11.068;2022-07-11T15:18:22;22.20;99.90
29917;DHT22;16786;49.466;11.068;2022-07-11T15:20:49;22.00;99.90
29917;DHT22;16786;49.466;11.068;2022-07-11T15:23:17;21.90;99.90
29917;DHT22;16786;49.466;11.068;2022-07-11T15:25:44;21.90;99.90
29917;DHT22;16786;49.466;11.068;2022-07-11T15:28:11;21.90;99.90
29917;DHT22;16786;49.466;11.068;2022-07-11T15:30:47;22.00;99.90
29917;DHT22;16786;49.466;11.068;2022-07-11T15:33:14;21.80;99.90
29917;DHT22;16786;49.466;11.068;2022-07-11T15:35:41;21.90;99.90
29917;DHT22;16786;49.466;11.068;2022-07-11T15:38:10;22.10;99.90
29917;DHT22;16786;49.466;11.068;2022-07-11T15:40:39;22.20;99.90
29917;DHT22;16786;49.466;11.068;2022-07-11T15:43:06;22.30;99.90
29917;DHT22;16786;49.466;11.068;2022-07-11T15:45:33;22.40;99.90